Terminal Aerodrome Forecast
Issued by NWS

Home | Current Version | Previous Version | Graphics & Text | Print | Product List | Glossary On
Versions: 1 2 3 4 5 6 7 8 9 10 11 12 13 14 15
157
FTUS43 KABR 041723
TAFPIR
TAF
KPIR 041723Z 0418/0518 31007KT P6SM SKC
     FM042300 17006KT P6SM OVC150
     FM051600 29012KT 5SM -SN OVC025=

USA.gov is the U.S. government's official web portal to all federal, state and local government web resources and services.